createdAt,value
2022-10-01T00:01:24.404Z,21.20
2022-10-01T00:03:54.203Z,21.50
2022-10-01T00:06:24.223Z,20.70
2022-10-01T00:08:52.809Z,21.20
2022-10-01T00:11:23.957Z,21.90
2022-10-01T00:13:53.569Z,23.00
2022-10-01T00:16:25.955Z,21.60
2022-10-01T00:18:55.350Z,21.80
2022-10-01T00:21:25.743Z,24.10
2022-10-01T00:23:55.499Z,22.70
2022-10-01T00:26:27.762Z,25.90
2022-10-01T00:28:58.715Z,24.80
2022-10-01T00:31:28.308Z,24.10
2022-10-01T00:33:59.826Z,23.90
2022-10-01T00:36:28.696Z,25.90
2022-10-01T00:38:59.814Z,25.50
2022-10-01T00:41:30.736Z,24.80
2022-10-01T00:44:01.592Z,24.70
2022-10-01T00:46:38.965Z,25.00
2022-10-01T00:49:11.228Z,26.60
2022-10-01T00:51:44.941Z,24.50
2022-10-01T00:54:16.952Z,24.70
2022-10-01T00:56:46.446Z,25.10
2022-10-01T00:59:16.007Z,24.30
2022-10-01T01:01:44.782Z,23.50
2022-10-01T01:04:16.134Z,23.00
2022-10-01T01:06:47.017Z,22.80
2022-10-01T01:09:16.366Z,20.50
2022-10-01T01:11:52.953Z,21.80
2022-10-01T01:14:26.889Z,23.30
2022-10-01T01:17:00.169Z,24.00
2022-10-01T01:19:43.362Z,22.80
2022-10-01T01:22:14.206Z,23.20
2022-10-01T01:24:49.951Z,23.00
2022-10-01T01:27:34.175Z,23.40
2022-10-01T01:30:07.782Z,21.90
2022-10-01T01:32:45.625Z,22.40
2022-10-01T01:35:19.534Z,22.10
2022-10-01T01:37:53.666Z,20.60
2022-10-01T01:40:23.433Z,19.30
2022-10-01T01:42:55.471Z,20.40
2022-10-01T01:47:56.937Z,18.50
2022-10-01T01:50:28.353Z,20.30
2022-10-01T01:52:59.075Z,21.10
2022-10-01T01:55:29.339Z,20.40
2022-10-01T01:57:58.339Z,19.50
2022-10-01T02:00:27.791Z,22.10
2022-10-01T02:02:57.468Z,23.30
2022-10-01T02:05:29.416Z,23.10
2022-10-01T02:08:23.441Z,24.00
2022-10-01T02:11:04.207Z,22.50
2022-10-01T02:13:47.159Z,22.60
2022-10-01T02:16:24.762Z,20.90
2022-10-01T02:19:01.089Z,21.70
2022-10-01T02:21:37.017Z,18.80
2022-10-01T02:24:13.145Z,18.90
2022-10-01T02:26:43.427Z,18.00
2022-10-01T02:29:16.009Z,20.70
2022-10-01T02:31:46.908Z,20.10
2022-10-01T02:34:20.273Z,18.90
2022-10-01T02:36:50.871Z,15.90
2022-10-01T02:39:22.353Z,16.90
2022-10-01T02:41:53.063Z,14.60
2022-10-01T02:44:27.450Z,15.00
2022-10-01T02:47:02.792Z,14.80
2022-10-01T02:49:32.890Z,15.00
2022-10-01T02:52:10.575Z,18.40
2022-10-01T02:58:20.046Z,20.10
2022-10-01T03:00:48.615Z,16.50
2022-10-01T03:03:17.136Z,18.40
2022-10-01T03:05:45.683Z,18.10
2022-10-01T03:08:14.157Z,17.10
2022-10-01T03:10:46.583Z,15.90
2022-10-01T03:13:16.480Z,16.10
2022-10-01T03:15:47.362Z,17.00
2022-10-01T03:18:15.996Z,14.20
2022-10-01T03:20:47.314Z,13.50
2022-10-01T03:23:16.035Z,15.20
2022-10-01T03:25:44.719Z,14.60
2022-10-01T03:28:13.321Z,18.70
2022-10-01T03:30:41.856Z,19.20
2022-10-01T03:33:10.363Z,20.40
2022-10-01T03:35:38.861Z,17.00
2022-10-01T03:38:07.752Z,16.30
2022-10-01T03:40:38.391Z,17.80
2022-10-01T03:43:06.927Z,16.70
2022-10-01T03:45:35.424Z,18.80
2022-10-01T03:48:04.023Z,18.70
2022-10-01T03:50:32.609Z,19.60
2022-10-01T03:53:01.071Z,19.40
2022-10-01T03:55:29.699Z,19.80
2022-10-01T03:57:58.268Z,20.10
2022-10-01T04:00:26.797Z,19.10
2022-10-01T04:02:55.327Z,19.50
2022-10-01T04:05:25.012Z,17.80
2022-10-01T04:07:53.491Z,18.40
2022-10-01T04:10:21.976Z,17.80
2022-10-01T04:12:51.177Z,18.50
2022-10-01T04:15:19.941Z,19.30
2022-10-01T04:17:48.538Z,18.70
2022-10-01T04:20:17.653Z,18.70
2022-10-01T04:22:46.564Z,19.20
2022-10-01T04:25:15.354Z,21.10
2022-10-01T04:27:56.078Z,20.30
2022-10-01T04:30:25.220Z,17.60
2022-10-01T04:32:54.098Z,17.10
2022-10-01T04:35:23.235Z,18.50
2022-10-01T04:37:58.607Z,20.30
2022-10-01T04:40:27.835Z,20.20
2022-10-01T04:42:56.722Z,20.90
2022-10-01T04:45:25.294Z,21.30
2022-10-01T04:47:55.108Z,19.40
2022-10-01T04:50:25.614Z,20.40
2022-10-01T04:52:54.693Z,21.50
2022-10-01T04:55:24.219Z,36.40
2022-10-01T04:57:52.810Z,24.20
2022-10-01T05:00:23.851Z,26.00
2022-10-01T05:02:53.081Z,22.60
2022-10-01T05:05:23.404Z,18.10
2022-10-01T05:07:51.976Z,19.20
2022-10-01T05:10:22.241Z,20.20
2022-10-01T05:12:51.489Z,20.00
2022-10-01T05:15:20.157Z,21.40
2022-10-01T05:17:49.200Z,18.70
2022-10-01T05:20:20.087Z,19.60
2022-10-01T05:22:49.046Z,22.30
2022-10-01T05:25:18.687Z,18.00
2022-10-01T05:27:47.292Z,19.40
2022-10-01T05:30:23.396Z,17.90
2022-10-01T05:32:55.936Z,17.00
2022-10-01T05:35:24.741Z,14.60
2022-10-01T05:38:00.824Z,15.80
2022-10-01T05:40:29.844Z,17.40
2022-10-01T05:42:59.464Z,19.30
2022-10-01T05:45:31.363Z,18.30
2022-10-01T05:48:01.529Z,18.00
2022-10-01T05:50:32.015Z,20.90
2022-10-01T05:53:01.159Z,17.40
2022-10-01T05:55:34.010Z,16.60
2022-10-01T05:58:04.503Z,17.30
2022-10-01T06:00:35.346Z,18.20
2022-10-01T06:03:14.337Z,16.10
2022-10-01T06:05:51.370Z,15.90
2022-10-01T06:08:23.686Z,22.60
2022-10-01T06:10:58.291Z,23.30
2022-10-01T06:13:26.779Z,21.90
2022-10-01T06:16:00.581Z,20.40
2022-10-01T06:18:29.304Z,20.60
2022-10-01T06:20:59.862Z,18.80
2022-10-01T06:23:29.995Z,17.60
2022-10-01T06:26:05.873Z,16.80
2022-10-01T06:28:43.324Z,18.10
2022-10-01T06:31:11.770Z,19.50
2022-10-01T06:33:40.283Z,17.70
2022-10-01T06:36:08.868Z,17.70
2022-10-01T06:38:37.321Z,17.20
2022-10-01T06:41:06.672Z,16.10
2022-10-01T06:43:35.122Z,18.00
2022-10-01T06:46:04.861Z,17.40
2022-10-01T06:48:35.799Z,19.10
2022-10-01T06:51:05.135Z,19.50
2022-10-01T06:53:33.946Z,18.90
2022-10-01T06:56:06.235Z,19.10
2022-10-01T06:58:35.137Z,18.60
2022-10-01T07:01:03.846Z,21.00
2022-10-01T07:03:32.590Z,19.50
2022-10-01T07:06:07.358Z,19.00
2022-10-01T07:08:35.961Z,20.00
2022-10-01T07:11:04.689Z,20.10
2022-10-01T07:13:33.376Z,21.60
2022-10-01T07:16:03.924Z,21.10
2022-10-01T07:18:32.414Z,22.30
2022-10-01T07:21:01.135Z,21.90
2022-10-01T07:23:29.669Z,21.50
2022-10-01T07:25:59.251Z,20.20
2022-10-01T07:28:28.102Z,20.90
2022-10-01T07:31:01.890Z,19.50
2022-10-01T07:33:30.533Z,22.30
2022-10-01T07:36:01.903Z,20.80
2022-10-01T07:38:30.891Z,20.90
2022-10-01T07:41:01.833Z,20.30
2022-10-01T07:43:30.673Z,20.60
2022-10-01T07:45:59.567Z,21.30
2022-10-01T07:48:28.274Z,21.50
2022-10-01T07:50:57.136Z,20.80
2022-10-01T07:53:25.693Z,20.50
2022-10-01T07:55:54.174Z,21.50
2022-10-01T07:58:23.390Z,23.00
2022-10-01T08:00:55.233Z,23.40
2022-10-01T08:05:53.021Z,21.10
2022-10-01T08:08:21.316Z,21.20
2022-10-01T08:10:50.289Z,21.70
2022-10-01T08:13:19.776Z,22.10
2022-10-01T08:15:52.682Z,20.20
2022-10-01T08:18:21.417Z,21.20
2022-10-01T08:20:50.144Z,22.00
2022-10-01T08:23:18.781Z,20.30
2022-10-01T08:25:47.506Z,20.40
2022-10-01T08:28:18.938Z,20.60
2022-10-01T08:30:47.542Z,20.30
2022-10-01T08:33:16.107Z,19.50
2022-10-01T08:35:45.005Z,19.80
2022-10-01T08:38:13.788Z,19.60
2022-10-01T08:40:47.557Z,20.00
2022-10-01T08:43:35.791Z,20.30
2022-10-01T08:46:06.422Z,18.80
2022-10-01T08:48:45.120Z,20.20
2022-10-01T08:51:23.571Z,18.70
2022-10-01T08:53:55.715Z,20.40
2022-10-01T08:58:58.431Z,18.40
2022-10-01T09:01:29.107Z,19.50
2022-10-01T09:03:58.679Z,19.60
2022-10-01T09:06:28.796Z,19.30
2022-10-01T09:09:12.319Z,19.50
2022-10-01T09:11:59.376Z,20.40
2022-10-01T09:14:53.378Z,19.70
2022-10-01T09:17:50.389Z,17.10
2022-10-01T09:20:32.862Z,18.60
2022-10-01T09:23:19.734Z,18.50
2022-10-01T09:25:53.709Z,18.60
2022-10-01T09:28:32.659Z,19.30
2022-10-01T09:31:16.155Z,18.80
2022-10-01T09:33:54.852Z,15.70
2022-10-01T09:36:36.665Z,16.80
2022-10-01T09:39:18.292Z,18.20
2022-10-01T09:41:51.415Z,17.50
2022-10-01T09:44:28.941Z,17.90
2022-10-01T09:46:59.873Z,19.40
2022-10-01T09:49:39.131Z,17.20
2022-10-01T09:52:17.798Z,17.10
2022-10-01T09:54:51.407Z,17.10
2022-10-01T09:57:26.400Z,15.30
2022-10-01T10:00:07.195Z,17.30
2022-10-01T10:02:39.331Z,14.40
2022-10-01T10:05:12.925Z,15.40
2022-10-01T10:07:46.108Z,14.10
2022-10-01T10:10:25.521Z,14.20
2022-10-01T10:13:01.101Z,14.10
2022-10-01T10:15:31.925Z,14.00
2022-10-01T10:18:06.920Z,14.50
2022-10-01T10:20:39.983Z,14.00
2022-10-01T10:23:13.825Z,14.10
2022-10-01T10:25:42.756Z,12.60
2022-10-01T10:28:20.569Z,12.70
2022-10-01T10:30:50.653Z,10.90
2022-10-01T10:33:21.335Z,12.30
2022-10-01T10:35:59.760Z,11.60
2022-10-01T10:38:31.091Z,12.40
2022-10-01T10:41:00.354Z,11.00
2022-10-01T10:43:33.472Z,11.90
2022-10-01T10:46:03.006Z,12.30
2022-10-01T10:48:36.921Z,13.00
2022-10-01T10:51:06.391Z,12.40
2022-10-01T10:53:43.652Z,12.10
2022-10-01T10:56:22.202Z,12.00
2022-10-01T10:58:51.638Z,10.40
2022-10-01T11:01:27.195Z,10.00
2022-10-01T11:03:59.165Z,9.10
2022-10-01T11:09:04.067Z,10.10
2022-10-01T11:11:46.771Z,9.90
2022-10-01T11:14:27.900Z,9.10
2022-10-01T11:17:14.077Z,9.10
2022-10-01T11:20:01.181Z,11.10
2022-10-01T11:22:45.148Z,9.90
2022-10-01T11:25:28.635Z,10.20
2022-10-01T11:30:41.987Z,10.30
2022-10-01T11:33:20.166Z,10.60
2022-10-01T11:35:57.545Z,9.90
2022-10-01T11:38:40.802Z,10.50
2022-10-01T11:41:27.849Z,10.20
2022-10-01T11:44:04.534Z,9.70
2022-10-01T11:46:42.585Z,10.00
2022-10-01T11:49:33.340Z,9.60
2022-10-01T11:52:10.231Z,12.40
2022-10-01T11:54:56.070Z,10.00
2022-10-01T11:57:44.977Z,10.50
2022-10-01T12:00:15.289Z,13.70
2022-10-01T12:02:51.553Z,10.40
2022-10-01T12:05:23.416Z,13.00
2022-10-01T12:10:38.679Z,8.00
2022-10-01T12:13:19.153Z,9.90
2022-10-01T12:15:53.374Z,7.90
2022-10-01T12:18:31.240Z,7.10
2022-10-01T12:21:03.533Z,9.60
2022-10-01T12:23:39.706Z,7.80
2022-10-01T12:26:17.746Z,9.50
2022-10-01T12:28:59.931Z,7.60
2022-10-01T12:31:35.966Z,8.30
2022-10-01T12:34:15.957Z,13.20
2022-10-01T12:36:55.153Z,15.90
2022-10-01T12:39:31.821Z,10.80
2022-10-01T12:42:14.753Z,7.50
2022-10-01T12:44:56.582Z,6.50
2022-10-01T12:47:38.685Z,7.10
2022-10-01T12:52:53.699Z,5.80
2022-10-01T12:55:33.581Z,6.90
2022-10-01T12:58:12.405Z,6.10
2022-10-01T13:00:50.044Z,4.80
2022-10-01T13:03:36.843Z,5.00
2022-10-01T13:06:33.207Z,5.90
2022-10-01T13:09:13.551Z,6.40
2022-10-01T13:12:00.622Z,7.80
2022-10-01T13:14:32.527Z,7.80
2022-10-01T13:19:40.821Z,7.80
2022-10-01T13:22:18.988Z,8.20
2022-10-01T13:24:55.289Z,8.80
2022-10-01T13:27:32.421Z,8.50
2022-10-01T13:30:05.425Z,8.00
2022-10-01T13:32:36.667Z,7.50
2022-10-01T13:35:23.726Z,6.10
2022-10-01T13:37:52.907Z,5.70
2022-10-01T13:40:29.952Z,6.90
2022-10-01T13:43:01.835Z,6.80
2022-10-01T13:45:39.333Z,6.80
2022-10-01T13:48:15.955Z,9.50
2022-10-01T13:50:57.052Z,8.30
2022-10-01T13:53:29.015Z,7.30
2022-10-01T13:55:58.273Z,6.60
2022-10-01T13:58:36.714Z,7.20
2022-10-01T14:01:25.620Z,7.70
2022-10-01T14:04:03.257Z,8.40
2022-10-01T14:06:42.018Z,7.10
2022-10-01T14:09:16.312Z,7.40
2022-10-01T14:12:06.088Z,7.40
2022-10-01T14:14:55.611Z,6.50
2022-10-01T14:17:27.672Z,6.80
2022-10-01T14:19:58.675Z,5.70
2022-10-01T14:22:38.764Z,5.90
2022-10-01T14:25:31.094Z,5.40
2022-10-01T14:28:12.145Z,6.20
2022-10-01T14:30:48.503Z,6.40
2022-10-01T14:33:35.122Z,5.80
2022-10-01T14:36:10.076Z,6.40
2022-10-01T14:38:38.914Z,11.50
2022-10-01T14:41:18.018Z,11.50
2022-10-01T14:43:47.802Z,11.20
2022-10-01T14:46:18.080Z,9.60
2022-10-01T14:48:58.012Z,8.70
2022-10-01T14:51:28.451Z,8.70
2022-10-01T14:53:59.868Z,10.20
2022-10-01T14:56:29.086Z,7.70
2022-10-01T14:59:02.229Z,6.10
2022-10-01T15:01:30.798Z,5.80
2022-10-01T15:03:59.736Z,6.40
2022-10-01T15:06:29.227Z,9.00
2022-10-01T15:09:13.672Z,14.50
2022-10-01T15:11:44.932Z,14.60
2022-10-01T15:14:17.531Z,13.60
2022-10-01T15:16:48.550Z,13.00
2022-10-01T15:19:20.385Z,10.80
2022-10-01T15:21:50.959Z,14.30
2022-10-01T15:24:28.761Z,14.80
2022-10-01T15:26:58.325Z,13.50
2022-10-01T15:29:27.380Z,14.20
2022-10-01T15:31:58.066Z,14.70
2022-10-01T15:34:27.719Z,14.00
2022-10-01T15:36:56.547Z,15.00
2022-10-01T15:39:35.384Z,12.90
2022-10-01T15:42:08.436Z,15.60
2022-10-01T15:44:49.754Z,14.80
2022-10-01T15:47:32.751Z,16.60
2022-10-01T15:50:19.366Z,15.60
2022-10-01T15:53:06.253Z,15.10
2022-10-01T15:55:39.650Z,14.40
2022-10-01T15:58:17.031Z,13.60
2022-10-01T16:00:58.890Z,15.40
2022-10-01T16:03:34.748Z,14.30
2022-10-01T16:06:22.348Z,16.50
2022-10-01T16:09:01.406Z,18.40
2022-10-01T16:11:51.249Z,22.30
2022-10-01T16:14:29.603Z,27.80
2022-10-01T16:17:27.394Z,12.80
2022-10-01T16:19:58.547Z,3.50
2022-10-01T16:22:31.045Z,2.90
2022-10-01T16:25:01.574Z,2.50
2022-10-01T16:27:35.082Z,2.30
2022-10-01T16:30:11.791Z,2.00
2022-10-01T16:32:40.323Z,1.80
2022-10-01T16:35:20.258Z,2.10
2022-10-01T16:37:50.713Z,1.80
2022-10-01T16:40:20.592Z,2.00
2022-10-01T16:42:50.287Z,1.60
2022-10-01T16:45:21.865Z,1.70
2022-10-01T16:47:51.226Z,1.40
2022-10-01T16:50:21.427Z,1.50
2022-10-01T16:52:52.744Z,1.40
2022-10-01T16:55:23.413Z,1.60
2022-10-01T16:57:53.880Z,1.40
2022-10-01T17:00:24.965Z,1.20
2022-10-01T17:02:55.653Z,1.00
2022-10-01T17:05:26.115Z,1.10
2022-10-01T17:07:57.073Z,0.80
2022-10-01T17:10:26.695Z,1.00
2022-10-01T17:12:55.990Z,1.20
2022-10-01T17:15:26.476Z,1.00
2022-10-01T17:17:56.094Z,1.00
2022-10-01T17:20:27.793Z,1.00
2022-10-01T17:22:57.310Z,1.20
2022-10-01T17:25:30.408Z,1.20
2022-10-01T17:28:00.276Z,0.90
2022-10-01T17:30:29.073Z,1.00
2022-10-01T17:32:59.244Z,1.30
2022-10-01T17:35:29.235Z,1.20
2022-10-01T17:37:58.401Z,1.20
2022-10-01T17:40:27.423Z,1.80
2022-10-01T17:42:56.370Z,1.60
2022-10-01T17:45:25.071Z,2.10
2022-10-01T17:47:53.964Z,1.80
2022-10-01T17:50:22.935Z,1.60
2022-10-01T17:52:51.560Z,1.30
2022-10-01T17:55:23.111Z,1.20
2022-10-01T17:57:52.592Z,1.00
2022-10-01T18:00:22.190Z,1.00
2022-10-01T18:02:50.725Z,1.00
2022-10-01T18:05:21.341Z,1.40
2022-10-01T18:07:50.473Z,1.70
2022-10-01T18:10:19.304Z,1.50
2022-10-01T18:12:48.336Z,2.00
2022-10-01T18:15:19.807Z,2.00
2022-10-01T18:17:51.747Z,2.30
2022-10-01T18:20:21.699Z,2.90
2022-10-01T18:22:51.092Z,2.70
2022-10-01T18:25:24.227Z,2.00
2022-10-01T18:27:57.286Z,1.90
2022-10-01T18:30:29.041Z,2.50
2022-10-01T18:33:02.806Z,2.90
2022-10-01T18:35:39.944Z,3.80
2022-10-01T18:38:20.122Z,7.90
2022-10-01T18:40:56.826Z,8.00
2022-10-01T18:43:36.230Z,6.90
2022-10-01T18:46:19.567Z,4.90
2022-10-01T18:49:14.292Z,5.50
2022-10-01T18:52:06.867Z,5.10
2022-10-01T18:55:00.146Z,6.00
2022-10-01T18:57:51.096Z,6.20
2022-10-01T19:00:28.099Z,6.90
2022-10-01T19:03:25.128Z,5.00
2022-10-01T19:06:15.326Z,6.90
2022-10-01T19:09:01.696Z,7.30
2022-10-01T19:11:49.237Z,16.90
2022-10-01T19:14:37.799Z,6.80
2022-10-01T19:17:22.413Z,11.00
2022-10-01T19:20:05.776Z,5.50
2022-10-01T19:22:51.668Z,2.50
2022-10-01T19:25:26.847Z,2.00
2022-10-01T19:28:10.009Z,1.70
2022-10-01T19:30:51.819Z,1.80
2022-10-01T19:33:22.348Z,1.30
2022-10-01T19:35:56.599Z,1.90
2022-10-01T19:38:29.126Z,2.00
2022-10-01T19:41:01.240Z,2.30
2022-10-01T19:43:37.611Z,2.70
2022-10-01T19:46:12.336Z,2.10
2022-10-01T19:48:47.557Z,2.40
2022-10-01T19:51:20.909Z,2.10
2022-10-01T19:53:55.825Z,1.60
2022-10-01T19:56:27.856Z,1.80
2022-10-01T19:58:57.033Z,1.90
2022-10-01T20:01:34.034Z,1.90
2022-10-01T20:04:11.011Z,2.40
2022-10-01T20:06:43.793Z,2.00
2022-10-01T20:09:23.066Z,2.30
2022-10-01T20:11:59.275Z,2.10
2022-10-01T20:15:03.188Z,2.30
2022-10-01T20:17:37.623Z,2.40
2022-10-01T20:20:16.619Z,1.90
2022-10-01T20:23:00.107Z,1.90
2022-10-01T20:25:39.194Z,2.10
2022-10-01T20:28:15.726Z,2.40
2022-10-01T20:30:56.462Z,2.10
2022-10-01T20:33:34.317Z,2.30
2022-10-01T20:36:11.253Z,2.50
2022-10-01T20:38:45.512Z,2.90
2022-10-01T20:41:17.420Z,3.90
2022-10-01T20:43:52.455Z,5.60
2022-10-01T20:46:26.159Z,5.00
2022-10-01T20:49:01.554Z,8.30
2022-10-01T20:51:47.561Z,5.30
2022-10-01T20:54:21.899Z,5.80
2022-10-01T20:57:06.771Z,5.80
2022-10-01T20:59:41.057Z,7.30
2022-10-01T21:02:28.524Z,6.00
2022-10-01T21:05:06.520Z,3.80
2022-10-01T21:07:41.959Z,9.80
2022-10-01T21:10:22.186Z,8.80
2022-10-01T21:13:05.034Z,14.10
2022-10-01T21:15:47.519Z,8.10
2022-10-01T21:18:25.456Z,8.10
2022-10-01T21:21:07.795Z,7.50
2022-10-01T21:23:51.800Z,7.80
2022-10-01T21:26:34.893Z,8.90
2022-10-01T21:29:27.580Z,8.60
2022-10-01T21:32:11.978Z,26.30
2022-10-01T21:34:54.729Z,21.30
2022-10-01T21:37:29.414Z,25.40
2022-10-01T21:40:17.150Z,25.00
2022-10-01T21:43:01.040Z,12.00
2022-10-01T21:45:38.539Z,10.10
2022-10-01T21:48:25.551Z,3.60
2022-10-01T21:50:59.698Z,3.30
2022-10-01T21:53:44.246Z,3.10
2022-10-01T21:56:23.618Z,4.60
2022-10-01T21:59:05.262Z,5.30
2022-10-01T22:01:55.196Z,4.50
2022-10-01T22:04:31.827Z,7.80
2022-10-01T22:07:12.469Z,9.80
2022-10-01T22:09:49.563Z,7.50
2022-10-01T22:12:19.362Z,6.10
2022-10-01T22:14:51.369Z,10.70
2022-10-01T22:17:24.832Z,10.00
2022-10-01T22:19:57.203Z,4.60
2022-10-01T22:22:30.782Z,4.40
2022-10-01T22:25:00.914Z,3.60
2022-10-01T22:27:36.447Z,3.30
2022-10-01T22:30:12.085Z,3.70
2022-10-01T22:32:45.427Z,3.40
2022-10-01T22:35:19.755Z,3.30
2022-10-01T22:37:53.156Z,3.50
2022-10-01T22:40:28.098Z,3.30
2022-10-01T22:43:03.027Z,3.00
2022-10-01T22:45:52.200Z,3.60
2022-10-01T22:48:36.992Z,3.60
2022-10-01T22:51:20.605Z,4.10
2022-10-01T22:54:08.853Z,3.60
2022-10-01T22:56:48.122Z,3.30
2022-10-01T22:59:31.905Z,3.70
2022-10-01T23:02:07.174Z,2.70
2022-10-01T23:04:53.586Z,3.60
2022-10-01T23:07:31.442Z,3.50
2022-10-01T23:10:08.946Z,4.00
2022-10-01T23:12:46.152Z,3.20
2022-10-01T23:15:27.618Z,3.70
2022-10-01T23:18:03.381Z,3.40
2022-10-01T23:20:35.571Z,3.70
2022-10-01T23:25:49.380Z,3.20
2022-10-01T23:28:32.782Z,3.70
2022-10-01T23:31:10.392Z,3.20
2022-10-01T23:33:58.825Z,3.40
2022-10-01T23:36:44.257Z,3.30
2022-10-01T23:39:45.108Z,3.90
2022-10-01T23:42:28.559Z,3.20
2022-10-01T23:45:08.690Z,3.10
2022-10-01T23:47:42.976Z,2.70
2022-10-01T23:50:22.064Z,2.60
2022-10-01T23:52:59.501Z,3.10
2022-10-01T23:55:56.698Z,3.10
2022-10-01T23:58:28.431Z,3.40
